createdAt,value
2023-03-06T00:00:35.526Z,92436.09
2023-03-06T00:02:07.071Z,92427.34
2023-03-06T00:03:38.631Z,92432.38
2023-03-06T00:05:10.225Z,92425.22
2023-03-06T00:06:41.872Z,92429.22
2023-03-06T00:08:13.400Z,92430.50
2023-03-06T00:09:44.957Z,92424.13
2023-03-06T00:11:16.613Z,92411.94
2023-03-06T00:12:49.046Z,92415.94
2023-03-06T00:14:21.016Z,92420.19
2023-03-06T00:15:53.861Z,92422.31
2023-03-06T00:17:27.729Z,92416.72
2023-03-06T00:18:59.994Z,92424.16
2023-03-06T00:20:31.710Z,92425.50
2023-03-06T00:22:03.423Z,92418.03
2023-03-06T00:23:35.060Z,92423.88
2023-03-06T00:25:07.298Z,92423.34
2023-03-06T00:26:41.594Z,92424.38
2023-03-06T00:28:14.974Z,92424.09
2023-03-06T00:29:49.389Z,92421.44
2023-03-06T00:31:21.017Z,92422.50
2023-03-06T00:32:52.631Z,92424.88
2023-03-06T00:34:24.543Z,92419.56
2023-03-06T00:35:56.563Z,92423.56
2023-03-06T00:37:28.249Z,92414.81
2023-03-06T00:39:00.042Z,92418.78
2023-03-06T00:40:31.550Z,92418.03
2023-03-06T00:42:03.040Z,92411.66
2023-03-06T00:43:34.562Z,92413.56
2023-03-06T00:45:06.411Z,92409.03
2023-03-06T00:46:38.034Z,92409.06
2023-03-06T00:48:09.536Z,92403.78
2023-03-06T00:49:41.036Z,92409.59
2023-03-06T00:51:14.005Z,92408.56
2023-03-06T00:52:45.717Z,92417.06
2023-03-06T00:54:17.370Z,92416.00
2023-03-06T00:55:49.811Z,92412.00
2023-03-06T00:57:21.505Z,92412.00
2023-03-06T00:58:53.186Z,92409.06
2023-03-06T01:00:25.104Z,92417.56
2023-03-06T01:01:56.819Z,92422.09
2023-03-06T01:03:28.306Z,92414.97
2023-03-06T01:04:59.893Z,92408.06
2023-03-06T01:06:31.382Z,92420.03
2023-03-06T01:08:03.105Z,92412.88
2023-03-06T01:09:34.612Z,92411.81
2023-03-06T01:11:06.744Z,92411.81
2023-03-06T01:12:38.705Z,92406.50
2023-03-06T01:14:10.224Z,92405.47
2023-03-06T01:15:41.757Z,92407.59
2023-03-06T01:17:13.534Z,92402.28
2023-03-06T01:18:45.764Z,92404.66
2023-03-06T01:20:17.319Z,92407.59
2023-03-06T01:21:49.380Z,92408.66
2023-03-06T01:23:20.867Z,92409.72
2023-03-06T01:24:52.413Z,92405.75
2023-03-06T01:26:24.161Z,92403.34
2023-03-06T01:27:55.914Z,92395.13
2023-03-06T01:29:27.559Z,92399.38
2023-03-06T01:30:59.042Z,92395.94
2023-03-06T01:32:32.132Z,92399.13
2023-03-06T01:34:04.095Z,92393.81
2023-03-06T01:35:36.102Z,92402.31
2023-03-06T01:37:08.059Z,92390.66
2023-03-06T01:38:40.178Z,92387.47
2023-03-06T01:40:12.860Z,92386.69
2023-03-06T01:41:44.631Z,92391.69
2023-03-06T01:43:28.454Z,92392.25
2023-03-06T01:45:02.990Z,92385.06
2023-03-06T01:46:38.821Z,92381.63
2023-03-06T01:48:10.801Z,92386.13
2023-03-06T01:49:42.522Z,92378.72
2023-03-06T01:51:14.642Z,92384.03
2023-03-06T01:52:51.820Z,92384.53
2023-03-06T01:54:43.595Z,92383.75
2023-03-06T01:56:16.206Z,92386.38
2023-03-06T01:57:49.223Z,92392.22
2023-03-06T01:59:21.190Z,92390.09
2023-03-06T02:00:54.947Z,92389.31
2023-03-06T02:02:26.587Z,92389.31
2023-03-06T02:03:58.489Z,92386.41
2023-03-06T02:05:30.097Z,92386.66
2023-03-06T02:07:02.058Z,92389.56
2023-03-06T02:08:35.343Z,92384.81
2023-03-06T02:10:07.672Z,92394.88
2023-03-06T02:11:43.866Z,92396.47
2023-03-06T02:13:15.870Z,92388.00
2023-03-06T02:14:48.178Z,92385.59
2023-03-06T02:16:20.650Z,92389.31
2023-03-06T02:17:52.246Z,92399.91
2023-03-06T02:19:29.954Z,92399.91
2023-03-06T02:21:04.762Z,92401.25
2023-03-06T02:22:59.574Z,92397.25
2023-03-06T02:24:49.902Z,92403.88
2023-03-06T02:26:21.489Z,92401.50
2023-03-06T02:27:52.976Z,92397.78
2023-03-06T02:29:25.504Z,92399.38
2023-03-06T02:30:57.840Z,92392.50
2023-03-06T02:32:29.609Z,92398.06
2023-03-06T02:34:07.074Z,92392.50
2023-03-06T02:35:39.174Z,92396.16
2023-03-06T02:37:10.874Z,92397.75
2023-03-06T02:38:49.973Z,92406.75
2023-03-06T02:40:27.505Z,92408.63
2023-03-06T02:42:03.328Z,92410.75
2023-03-06T02:43:39.736Z,92418.16
2023-03-06T02:45:11.404Z,92416.56
2023-03-06T02:46:42.980Z,92416.31
2023-03-06T02:48:14.737Z,92416.56
2023-03-06T02:49:49.591Z,92417.38
2023-03-06T02:51:25.322Z,92426.38
2023-03-06T02:52:57.488Z,92420.84
2023-03-06T02:54:29.748Z,92419.78
2023-03-06T02:56:01.426Z,92421.63
2023-03-06T02:57:33.055Z,92419.50
2023-03-06T02:59:04.627Z,92408.09
2023-03-06T03:00:36.167Z,92413.41
2023-03-06T03:02:10.482Z,92412.63
2023-03-06T03:03:42.069Z,92415.00
2023-03-06T03:05:14.675Z,92413.94
2023-03-06T03:06:46.675Z,92412.34
2023-03-06T03:08:18.353Z,92409.19
2023-03-06T03:09:49.857Z,92401.78
2023-03-06T03:11:21.436Z,92400.69
2023-03-06T03:12:53.012Z,92410.78
2023-03-06T03:14:24.780Z,92395.66
2023-03-06T03:15:59.877Z,92400.72
2023-03-06T03:17:32.039Z,92391.44
2023-03-06T03:19:03.854Z,92386.69
2023-03-06T03:20:35.521Z,92387.97
2023-03-06T03:22:07.080Z,92398.31
2023-03-06T03:23:38.686Z,92390.09
2023-03-06T03:25:10.373Z,92388.25
2023-03-06T03:26:41.987Z,92386.13
2023-03-06T03:28:13.506Z,92395.69
2023-03-06T03:29:45.037Z,92386.94
2023-03-06T03:31:16.659Z,92394.63
2023-03-06T03:32:48.254Z,92394.06
2023-03-06T03:34:19.935Z,92393.03
2023-03-06T03:35:56.568Z,92388.53
2023-03-06T03:37:28.286Z,92390.13
2023-03-06T03:39:00.302Z,92392.22
2023-03-06T03:40:31.898Z,92395.38
2023-03-06T03:42:03.694Z,92396.97
2023-03-06T03:43:35.326Z,92388.00
2023-03-06T03:45:07.154Z,92385.88
2023-03-06T03:46:38.917Z,92389.03
2023-03-06T03:48:10.447Z,92388.00
2023-03-06T03:49:42.024Z,92402.28
2023-03-06T03:51:14.050Z,92403.34
2023-03-06T03:52:45.605Z,92403.06
2023-03-06T03:54:17.197Z,92404.16
2023-03-06T03:55:48.737Z,92402.84
2023-03-06T03:57:21.262Z,92400.97
2023-03-06T03:58:53.111Z,92395.16
2023-03-06T04:00:25.150Z,92410.78
2023-03-06T04:01:56.695Z,92406.81
2023-03-06T04:03:28.717Z,92394.09
2023-03-06T04:05:00.391Z,92402.28
2023-03-06T04:06:32.492Z,92411.31
2023-03-06T04:08:04.937Z,92414.22
2023-03-06T04:09:36.628Z,92403.34
2023-03-06T04:11:08.323Z,92405.47
2023-03-06T04:12:39.861Z,92411.81
2023-03-06T04:14:11.422Z,92411.84
2023-03-06T04:15:43.110Z,92414.47
2023-03-06T04:17:14.883Z,92413.41
2023-03-06T04:18:49.013Z,92416.06
2023-03-06T04:20:20.743Z,92420.31
2023-03-06T04:21:52.398Z,92422.44
2023-03-06T04:23:24.497Z,92426.16
2023-03-06T04:24:56.300Z,92420.84
2023-03-06T04:26:27.791Z,92422.44
2023-03-06T04:27:59.422Z,92422.44
2023-03-06T04:29:31.061Z,92434.88
2023-03-06T04:31:02.818Z,92429.31
2023-03-06T04:32:34.465Z,92430.91
2023-03-06T04:34:06.189Z,92434.38
2023-03-06T04:35:37.710Z,92425.63
2023-03-06T04:37:12.372Z,92430.91
2023-03-06T04:38:43.944Z,92431.19
2023-03-06T04:40:28.799Z,92435.16
2023-03-06T04:42:00.807Z,92431.72
2023-03-06T04:43:32.554Z,92436.22
2023-03-06T04:45:04.203Z,92439.41
2023-03-06T04:46:35.745Z,92441.53
2023-03-06T04:48:07.477Z,92441.78
2023-03-06T04:49:39.194Z,92440.44
2023-03-06T04:51:11.749Z,92441.50
2023-03-06T04:52:43.309Z,92444.94
2023-03-06T04:54:14.862Z,92437.00
2023-03-06T04:55:46.436Z,92447.59
2023-03-06T04:57:18.308Z,92449.19
2023-03-06T04:58:49.838Z,92448.69
2023-03-06T05:00:22.355Z,92444.16
2023-03-06T05:01:53.967Z,92449.22
2023-03-06T05:03:25.658Z,92446.31
2023-03-06T05:04:57.737Z,92450.25
2023-03-06T05:06:29.246Z,92444.94
2023-03-06T05:08:00.837Z,92451.84
2023-03-06T05:09:33.474Z,92447.34
2023-03-06T05:11:05.172Z,92452.13
2023-03-06T05:12:37.436Z,92452.91
2023-03-06T05:14:09.152Z,92449.72
2023-03-06T05:15:40.832Z,92451.31
2023-03-06T05:17:12.397Z,92449.72
2023-03-06T05:18:44.041Z,92458.47
2023-03-06T05:20:16.197Z,92454.22
2023-03-06T05:21:47.794Z,92450.53
2023-03-06T05:23:19.387Z,92452.09
2023-03-06T05:24:50.915Z,92451.59
2023-03-06T05:26:22.472Z,92453.16
2023-03-06T05:27:54.046Z,92455.81
2023-03-06T05:29:25.622Z,92448.94
2023-03-06T05:30:57.223Z,92453.44
2023-03-06T05:32:28.897Z,92451.84
2023-03-06T05:34:00.841Z,92450.00
2023-03-06T05:35:32.534Z,92451.06
2023-03-06T05:37:04.074Z,92450.78
2023-03-06T05:38:35.583Z,92452.91
2023-03-06T05:40:09.610Z,92448.69
2023-03-06T05:41:41.124Z,92450.78
2023-03-06T05:43:12.651Z,92456.34
2023-03-06T05:44:44.273Z,92448.38
2023-03-06T05:46:15.960Z,92448.66
2023-03-06T05:47:47.669Z,92460.56
2023-03-06T05:49:19.216Z,92451.56
2023-03-06T05:50:54.965Z,92459.81
2023-03-06T05:52:26.475Z,92452.63
2023-03-06T05:53:58.148Z,92464.28
2023-03-06T05:55:29.686Z,92451.53
2023-03-06T05:57:01.211Z,92454.72
2023-03-06T05:58:32.823Z,92456.56
2023-03-06T06:00:05.066Z,92451.50
2023-03-06T06:01:36.738Z,92450.47
2023-03-06T06:03:08.647Z,92449.94
2023-03-06T06:04:40.276Z,92464.78
2023-03-06T06:06:13.141Z,92458.41
2023-03-06T06:07:44.713Z,92471.09
2023-03-06T06:09:16.491Z,92473.75
2023-03-06T06:10:48.006Z,92468.44
2023-03-06T06:12:19.941Z,92476.69
2023-03-06T06:13:51.620Z,92483.56
2023-03-06T06:15:23.396Z,92481.72
2023-03-06T06:16:55.100Z,92492.88
2023-03-06T06:18:26.962Z,92481.72
2023-03-06T06:19:58.631Z,92476.69
2023-03-06T06:21:30.243Z,92484.13
2023-03-06T06:23:01.902Z,92489.72
2023-03-06T06:24:33.589Z,92482.00
2023-03-06T06:26:05.780Z,92485.72
2023-03-06T06:27:37.399Z,92488.38
2023-03-06T06:29:09.363Z,92485.72
2023-03-06T06:30:40.934Z,92481.97
2023-03-06T06:32:12.491Z,92486.22
2023-03-06T06:33:44.155Z,92490.75
2023-03-06T06:35:15.773Z,92492.34
2023-03-06T06:36:47.415Z,92487.03
2023-03-06T06:38:19.049Z,92491.25
2023-03-06T06:39:50.985Z,92494.44
2023-03-06T06:43:14.480Z,92498.59
2023-03-06T06:44:46.821Z,92502.00
2023-03-06T06:46:49.954Z,92493.69
2023-03-06T06:48:10.746Z,92495.41
2023-03-06T06:49:42.543Z,92493.19
2023-03-06T06:51:14.135Z,92499.44
2023-03-06T06:52:45.683Z,92500.63
2023-03-06T06:54:19.156Z,92501.19
2023-03-06T06:55:50.871Z,92513.22
2023-03-06T06:57:22.456Z,92504.63
2023-03-06T06:58:57.446Z,92507.97
2023-03-06T07:00:32.918Z,92500.97
2023-03-06T07:02:04.625Z,92502.44
2023-03-06T07:03:36.280Z,92496.38
2023-03-06T07:05:08.107Z,92496.38
2023-03-06T07:06:39.681Z,92500.22
2023-03-06T07:08:11.405Z,92508.88
2023-03-06T07:09:43.087Z,92508.69
2023-03-06T07:11:15.818Z,92505.03
2023-03-06T07:12:47.460Z,92502.78
2023-03-06T07:14:19.098Z,92505.06
2023-03-06T07:15:50.956Z,92511.19
2023-03-06T07:17:22.658Z,92502.25
2023-03-06T07:18:54.735Z,92507.97
2023-03-06T07:20:26.692Z,92508.47
2023-03-06T07:22:00.414Z,92509.97
2023-03-06T07:23:32.027Z,92516.34
2023-03-06T07:25:05.156Z,92514.66
2023-03-06T07:26:36.690Z,92509.03
2023-03-06T07:28:08.343Z,92512.72
2023-03-06T07:29:39.955Z,92517.19
2023-03-06T07:31:11.812Z,92511.25
2023-03-06T07:32:43.359Z,92512.28
2023-03-06T07:34:15.071Z,92510.31
2023-03-06T07:35:46.726Z,92511.03
2023-03-06T07:37:18.292Z,92506.31
2023-03-06T07:38:49.998Z,92513.09
2023-03-06T07:40:21.657Z,92503.81
2023-03-06T07:41:53.536Z,92512.66
2023-03-06T07:43:25.237Z,92517.41
2023-03-06T07:44:57.045Z,92505.00
2023-03-06T07:46:29.010Z,92511.03
2023-03-06T07:48:00.760Z,92512.91
2023-03-06T07:49:32.925Z,92508.34
2023-03-06T07:51:05.546Z,92512.19
2023-03-06T07:52:37.177Z,92511.66
2023-03-06T07:54:08.709Z,92520.09
2023-03-06T07:55:40.726Z,92516.75
2023-03-06T07:57:13.205Z,92515.16
2023-03-06T07:58:45.099Z,92525.72
2023-03-06T08:00:16.858Z,92529.78
2023-03-06T08:01:48.454Z,92520.63
2023-03-06T08:03:20.136Z,92523.53
2023-03-06T08:04:52.450Z,92522.81
2023-03-06T08:06:24.840Z,92522.19
2023-03-06T08:07:56.414Z,92526.34
2023-03-06T08:09:28.455Z,92530.63
2023-03-06T08:11:00.960Z,92523.84
2023-03-06T08:12:32.766Z,92531.97
2023-03-06T08:14:04.290Z,92537.84
2023-03-06T08:15:35.948Z,92534.13
2023-03-06T08:17:07.538Z,92535.25
2023-03-06T08:18:42.830Z,92531.31
2023-03-06T08:20:16.172Z,92531.66
2023-03-06T08:21:47.825Z,92534.44
2023-03-06T08:23:19.440Z,92538.22
2023-03-06T08:24:54.107Z,92538.50
2023-03-06T08:26:27.062Z,92535.81
2023-03-06T08:27:58.848Z,92533.78
2023-03-06T08:29:32.343Z,92532.69
2023-03-06T08:31:11.165Z,92534.88
2023-03-06T08:32:42.960Z,92536.75
2023-03-06T08:34:15.712Z,92536.75
2023-03-06T08:35:47.426Z,92541.19
2023-03-06T08:37:19.304Z,92537.09
2023-03-06T08:38:50.919Z,92536.91
2023-03-06T08:40:23.555Z,92537.41
2023-03-06T08:41:55.148Z,92534.44
2023-03-06T08:43:26.943Z,92526.91
2023-03-06T08:44:58.788Z,92531.53
2023-03-06T08:46:33.699Z,92533.47
2023-03-06T08:48:05.549Z,92540.63
2023-03-06T08:49:39.774Z,92529.22
2023-03-06T08:51:11.642Z,92529.09
2023-03-06T08:52:43.670Z,92530.78
2023-03-06T08:54:15.178Z,92535.84
2023-03-06T08:55:46.899Z,92530.28
2023-03-06T08:57:18.906Z,92536.03
2023-03-06T08:58:52.019Z,92534.28
2023-03-06T09:00:23.970Z,92537.16
2023-03-06T09:01:55.729Z,92528.63
2023-03-06T09:03:27.513Z,92526.78
2023-03-06T09:05:01.510Z,92532.16
2023-03-06T09:06:35.209Z,92528.38
2023-03-06T09:08:07.257Z,92529.47
2023-03-06T09:09:38.893Z,92527.88
2023-03-06T09:11:11.553Z,92527.09
2023-03-06T09:12:50.144Z,92516.22
2023-03-06T09:14:22.488Z,92513.88
2023-03-06T09:15:54.404Z,92524.16
2023-03-06T09:17:26.308Z,92513.38
2023-03-06T09:18:59.061Z,92510.81
2023-03-06T09:20:30.994Z,92517.59
2023-03-06T09:22:02.913Z,92511.34
2023-03-06T09:23:34.850Z,92503.56
2023-03-06T09:25:06.631Z,92514.03
2023-03-06T09:26:46.213Z,92509.00
2023-03-06T09:28:18.693Z,92501.81
2023-03-06T09:29:50.386Z,92507.16
2023-03-06T09:31:22.075Z,92516.94
2023-03-06T09:32:53.892Z,92522.91
2023-03-06T09:34:27.798Z,92511.88
2023-03-06T09:36:00.024Z,92500.66
2023-03-06T09:37:32.096Z,92519.00
2023-03-06T09:39:04.400Z,92516.97
2023-03-06T09:40:39.147Z,92525.88
2023-03-06T09:42:15.276Z,92513.22
2023-03-06T09:43:47.336Z,92515.72
2023-03-06T09:45:20.732Z,92514.94
2023-03-06T09:46:52.320Z,92516.06
2023-03-06T09:48:28.752Z,92509.28
2023-03-06T09:50:06.232Z,92508.78
2023-03-06T09:51:50.478Z,92514.16
2023-03-06T09:53:28.581Z,92512.41
2023-03-06T09:55:10.050Z,92517.78
2023-03-06T09:56:46.746Z,92511.91
2023-03-06T09:58:21.700Z,92510.47
2023-03-06T09:59:54.710Z,92502.88
2023-03-06T10:01:28.186Z,92497.13
2023-03-06T10:03:08.629Z,92493.47
2023-03-06T10:04:47.927Z,92498.22
2023-03-06T10:06:27.718Z,92489.00
2023-03-06T10:08:03.819Z,92498.97
2023-03-06T10:09:36.047Z,92502.63
2023-03-06T10:11:09.052Z,92495.50
2023-03-06T10:12:42.523Z,92507.06
2023-03-06T10:14:14.261Z,92511.19
2023-03-06T10:15:45.910Z,92503.41
2023-03-06T10:17:24.015Z,92514.66
2023-03-06T10:18:56.107Z,92512.25
2023-03-06T10:20:29.005Z,92492.13
2023-03-06T10:22:03.019Z,92501.47
2023-03-06T10:23:37.640Z,92497.63
2023-03-06T10:25:18.671Z,92493.66
2023-03-06T10:26:52.907Z,92490.75
2023-03-06T10:28:27.437Z,92499.56
2023-03-06T10:30:14.320Z,92490.63
2023-03-06T10:31:49.631Z,92496.22
2023-03-06T10:33:35.368Z,92478.19
2023-03-06T10:35:09.491Z,92475.00
2023-03-06T10:36:41.249Z,92477.03
2023-03-06T10:38:18.624Z,92472.63
2023-03-06T10:39:52.369Z,92476.09
2023-03-06T10:41:27.929Z,92466.50
2023-03-06T10:43:11.151Z,92482.41
2023-03-06T10:44:43.780Z,92480.25
2023-03-06T10:46:26.083Z,92472.75
2023-03-06T10:48:09.570Z,92474.94
2023-03-06T10:49:41.347Z,92465.69
2023-03-06T10:51:20.131Z,92455.50
2023-03-06T10:53:05.261Z,92446.31
2023-03-06T10:54:37.852Z,92458.88
2023-03-06T10:56:09.729Z,92454.41
2023-03-06T10:57:41.336Z,92451.13
2023-03-06T10:59:17.373Z,92454.75
2023-03-06T11:00:59.979Z,92442.63
2023-03-06T11:02:33.046Z,92453.88
2023-03-06T11:04:17.392Z,92440.16
2023-03-06T11:05:54.799Z,92438.13
2023-03-06T11:07:30.089Z,92431.69
2023-03-06T11:09:14.610Z,92435.03
2023-03-06T11:10:46.104Z,92435.97
2023-03-06T11:12:23.334Z,92429.53
2023-03-06T11:13:58.485Z,92435.94
2023-03-06T11:15:31.226Z,92424.13
2023-03-06T11:17:03.282Z,92425.63
2023-03-06T11:18:36.379Z,92416.44
2023-03-06T11:20:30.307Z,92424.50
2023-03-06T11:22:06.318Z,92421.56
2023-03-06T11:23:43.613Z,92413.53
2023-03-06T11:25:15.709Z,92411.94
2023-03-06T11:26:51.447Z,92412.09
2023-03-06T11:28:23.109Z,92407.31
2023-03-06T11:29:54.893Z,92404.44
2023-03-06T11:31:28.607Z,92416.72
2023-03-06T11:33:04.755Z,92400.69
2023-03-06T11:34:40.153Z,92400.38
2023-03-06T11:36:14.594Z,92390.41
2023-03-06T11:37:48.014Z,92397.69
2023-03-06T11:39:31.545Z,92400.69
2023-03-06T11:41:04.831Z,92390.06
2023-03-06T11:42:36.940Z,92392.69
2023-03-06T11:44:09.337Z,92397.59
2023-03-06T11:45:59.852Z,92390.22
2023-03-06T11:47:35.895Z,92380.97
2023-03-06T11:49:13.602Z,92384.63
2023-03-06T11:50:48.222Z,92379.72
2023-03-06T11:52:26.389Z,92375.97
2023-03-06T11:53:59.239Z,92374.53
2023-03-06T11:55:30.867Z,92380.63
2023-03-06T11:57:05.139Z,92376.97
2023-03-06T11:58:47.481Z,92375.09
2023-03-06T12:00:31.436Z,92383.00
2023-03-06T12:02:06.292Z,92373.56
2023-03-06T12:03:53.597Z,92379.28
2023-03-06T12:05:36.181Z,92365.22
2023-03-06T12:07:10.864Z,92363.66
2023-03-06T12:08:54.373Z,92362.75
2023-03-06T12:10:29.562Z,92362.41
2023-03-06T12:12:31.135Z,92353.03
2023-03-06T12:14:06.221Z,92358.47
2023-03-06T12:15:44.400Z,92351.97
2023-03-06T12:17:16.033Z,92359.72
2023-03-06T12:19:00.131Z,92353.00
2023-03-06T12:20:50.722Z,92345.94
2023-03-06T12:22:31.213Z,92357.03
2023-03-06T12:24:07.909Z,92345.59
2023-03-06T12:25:40.323Z,92339.97
2023-03-06T12:27:15.167Z,92344.44
2023-03-06T12:28:54.316Z,92345.91
2023-03-06T12:30:50.054Z,92339.06
2023-03-06T12:32:28.401Z,92332.31
2023-03-06T12:34:01.375Z,92335.44
2023-03-06T12:35:37.230Z,92328.31
2023-03-06T12:37:12.776Z,92334.38
2023-03-06T12:38:56.310Z,92344.31
2023-03-06T12:40:37.214Z,92337.06
2023-03-06T12:42:22.598Z,92342.19
2023-03-06T12:44:15.090Z,92346.09
2023-03-06T12:45:46.854Z,92348.03
2023-03-06T12:47:21.520Z,92341.09
2023-03-06T12:49:07.462Z,92353.31
2023-03-06T12:50:40.022Z,92343.19
2023-03-06T12:52:18.728Z,92347.00
2023-03-06T12:53:53.170Z,92338.13
2023-03-06T12:55:25.946Z,92341.03
2023-03-06T12:56:58.836Z,92342.13
2023-03-06T12:58:30.804Z,92330.44
2023-03-06T13:00:02.689Z,92329.97
2023-03-06T13:01:37.336Z,92340.88
2023-03-06T13:03:20.080Z,92330.19
2023-03-06T13:04:58.249Z,92336.84
2023-03-06T13:06:34.137Z,92337.84
2023-03-06T13:08:20.344Z,92337.38
2023-03-06T13:09:58.422Z,92356.53
2023-03-06T13:11:48.705Z,92331.69
2023-03-06T13:13:55.920Z,92331.59
2023-03-06T13:15:37.733Z,92333.66
2023-03-06T13:17:24.557Z,92330.19
2023-03-06T13:19:01.713Z,92326.69
2023-03-06T13:20:35.115Z,92343.16
2023-03-06T13:22:13.482Z,92334.34
2023-03-06T13:23:48.941Z,92337.94
2023-03-06T13:25:21.229Z,92325.13
2023-03-06T13:27:05.047Z,92328.97
2023-03-06T13:28:41.764Z,92328.84
2023-03-06T13:30:39.928Z,92323.47
2023-03-06T13:32:14.523Z,92335.47
2023-03-06T13:33:46.348Z,92328.38
2023-03-06T13:35:31.022Z,92322.84
2023-03-06T13:37:17.497Z,92332.19
2023-03-06T13:38:49.167Z,92328.56
2023-03-06T13:40:36.115Z,92324.44
2023-03-06T13:42:07.864Z,92331.25
2023-03-06T13:43:45.091Z,92324.94
2023-03-06T13:45:17.022Z,92316.72
2023-03-06T13:46:56.347Z,92328.88
2023-03-06T13:48:43.664Z,92316.97
2023-03-06T13:50:33.919Z,92329.44
2023-03-06T13:52:26.030Z,92322.16
2023-03-06T13:54:10.043Z,92327.06
2023-03-06T13:55:46.278Z,92324.59
2023-03-06T13:57:41.237Z,92324.28
2023-03-06T13:59:23.116Z,92323.81
2023-03-06T14:01:04.447Z,92323.38
2023-03-06T14:02:56.424Z,92328.59
2023-03-06T14:04:38.404Z,92321.00
2023-03-06T14:06:28.985Z,92328.56
2023-03-06T14:08:10.476Z,92328.56
2023-03-06T14:09:43.158Z,92316.53
2023-03-06T14:11:19.293Z,92329.03
2023-03-06T14:12:50.787Z,92320.31
2023-03-06T14:14:49.345Z,92322.38
2023-03-06T14:16:25.017Z,92314.72
2023-03-06T14:17:58.204Z,92320.50
2023-03-06T14:19:30.921Z,92314.53
2023-03-06T14:21:14.666Z,92324.50
2023-03-06T14:22:46.826Z,92334.53
2023-03-06T14:24:20.794Z,92322.41
2023-03-06T14:25:59.833Z,92322.97
2023-03-06T14:27:50.758Z,92329.16
2023-03-06T14:29:25.966Z,92322.41
2023-03-06T14:30:57.985Z,92325.25
2023-03-06T14:32:30.534Z,92316.56
2023-03-06T14:34:08.310Z,92317.25
2023-03-06T14:35:40.171Z,92320.06
2023-03-06T14:37:19.313Z,92308.09
2023-03-06T14:38:51.366Z,92318.66
2023-03-06T14:40:26.207Z,92316.44
2023-03-06T14:42:07.251Z,92317.22
2023-03-06T14:43:38.983Z,92311.59
2023-03-06T14:45:18.905Z,92308.56
2023-03-06T14:46:55.228Z,92295.56
2023-03-06T14:48:38.703Z,92301.28
2023-03-06T14:50:25.957Z,92293.44
2023-03-06T14:52:00.793Z,92308.50
2023-03-06T14:53:33.304Z,92299.03
2023-03-06T14:55:09.502Z,92305.88
2023-03-06T14:56:42.461Z,92309.78
2023-03-06T14:58:15.814Z,92311.22
2023-03-06T14:59:56.729Z,92304.47
2023-03-06T15:01:35.963Z,92307.13
2023-03-06T15:03:09.093Z,92311.66
2023-03-06T15:04:42.921Z,92304.69
2023-03-06T15:06:18.680Z,92307.25
2023-03-06T15:07:52.198Z,92306.34
2023-03-06T15:09:24.530Z,92301.47
2023-03-06T15:11:09.848Z,92302.94
2023-03-06T15:12:49.677Z,92308.50
2023-03-06T15:14:31.249Z,92314.69
2023-03-06T15:16:07.170Z,92316.72
2023-03-06T15:17:42.585Z,92320.06
2023-03-06T15:19:16.623Z,92319.81
2023-03-06T15:20:50.869Z,92320.00
2023-03-06T15:22:27.232Z,92327.03
2023-03-06T15:23:59.846Z,92321.56
2023-03-06T15:25:32.234Z,92323.50
2023-03-06T15:27:05.474Z,92324.78
2023-03-06T15:28:39.001Z,92322.91
2023-03-06T15:30:21.439Z,92316.94
2023-03-06T15:31:53.373Z,92327.06
2023-03-06T15:33:27.869Z,92326.16
2023-03-06T15:35:18.048Z,92326.59
2023-03-06T15:36:51.764Z,92320.16
2023-03-06T15:38:26.219Z,92319.56
2023-03-06T15:40:09.661Z,92321.31
2023-03-06T15:41:42.208Z,92325.75
2023-03-06T15:43:14.042Z,92322.06
2023-03-06T15:45:00.291Z,92327.91
2023-03-06T15:46:31.982Z,92327.41
2023-03-06T15:48:03.754Z,92323.59
2023-03-06T15:49:36.505Z,92324.84
2023-03-06T15:51:08.896Z,92323.91
2023-03-06T15:52:40.715Z,92325.97
2023-03-06T15:54:13.015Z,92323.66
2023-03-06T15:55:44.680Z,92321.78
2023-03-06T15:57:26.802Z,92315.47
2023-03-06T15:58:58.811Z,92315.66
2023-03-06T16:00:38.322Z,92309.81
2023-03-06T16:02:17.225Z,92308.56
2023-03-06T16:03:48.935Z,92308.28
2023-03-06T16:05:20.672Z,92318.56
2023-03-06T16:06:53.105Z,92316.84
2023-03-06T16:08:25.010Z,92321.25
2023-03-06T16:09:56.542Z,92317.47
2023-03-06T16:11:35.420Z,92319.72
2023-03-06T16:13:17.977Z,92321.03
2023-03-06T16:14:49.716Z,92317.84
2023-03-06T16:16:23.382Z,92322.28
2023-03-06T16:17:57.997Z,92326.38
2023-03-06T16:19:29.896Z,92327.97
2023-03-06T16:21:01.952Z,92333.53
2023-03-06T16:22:33.963Z,92335.91
2023-03-06T16:24:05.941Z,92334.00
2023-03-06T16:25:38.898Z,92337.31
2023-03-06T16:27:15.314Z,92342.53
2023-03-06T16:28:47.606Z,92331.66
2023-03-06T16:30:19.643Z,92331.31
2023-03-06T16:31:51.718Z,92341.91
2023-03-06T16:33:23.299Z,92331.31
2023-03-06T16:34:55.255Z,92335.28
2023-03-06T16:36:27.443Z,92340.81
2023-03-06T16:38:03.373Z,92331.03
2023-03-06T16:39:47.297Z,92328.66
2023-03-06T16:41:39.873Z,92332.28
2023-03-06T16:43:13.700Z,92324.22
2023-03-06T16:44:45.506Z,92324.22
2023-03-06T16:46:18.111Z,92332.44
2023-03-06T16:47:50.083Z,92330.56
2023-03-06T16:49:25.521Z,92328.66
2023-03-06T16:50:57.146Z,92330.72
2023-03-06T16:52:28.936Z,92321.56
2023-03-06T16:54:00.522Z,92325.03
2023-03-06T16:55:32.774Z,92333.41
2023-03-06T16:57:04.654Z,92331.81
2023-03-06T16:58:36.386Z,92335.31
2023-03-06T17:00:08.368Z,92341.47
2023-03-06T17:01:40.808Z,92338.78
2023-03-06T17:03:12.979Z,92343.50
2023-03-06T17:04:44.644Z,92336.88
2023-03-06T17:06:16.883Z,92336.69
2023-03-06T17:07:50.674Z,92341.44
2023-03-06T17:09:22.280Z,92342.53
2023-03-06T17:10:53.904Z,92342.06
2023-03-06T17:12:25.562Z,92337.34
2023-03-06T17:13:57.306Z,92340.50
2023-03-06T17:15:29.186Z,92338.78
2023-03-06T17:17:00.996Z,92335.63
2023-03-06T17:18:32.793Z,92336.72
2023-03-06T17:20:04.670Z,92338.63
2023-03-06T17:21:38.579Z,92334.34
2023-03-06T17:23:10.265Z,92338.63
2023-03-06T17:24:42.104Z,92332.44
2023-03-06T17:26:14.681Z,92337.97
2023-03-06T17:27:46.749Z,92327.88
2023-03-06T17:29:18.407Z,92322.53
2023-03-06T17:30:50.537Z,92334.69
2023-03-06T17:32:22.291Z,92331.69
2023-03-06T17:33:59.972Z,92328.84
2023-03-06T17:35:31.661Z,92332.00
2023-03-06T17:37:03.338Z,92330.91
2023-03-06T17:38:35.562Z,92330.09
2023-03-06T17:40:08.027Z,92323.00
2023-03-06T17:41:40.004Z,92324.09
2023-03-06T17:43:11.732Z,92322.69
2023-03-06T17:44:43.282Z,92323.31
2023-03-06T17:46:15.073Z,92319.84
2023-03-06T17:47:48.981Z,92322.53
2023-03-06T17:49:23.729Z,92325.69
2023-03-06T17:50:55.713Z,92325.38
2023-03-06T17:52:27.881Z,92323.47
2023-03-06T17:53:59.816Z,92329.78
2023-03-06T17:55:31.775Z,92327.56
2023-03-06T17:57:05.544Z,92329.78
2023-03-06T17:58:37.484Z,92331.69
2023-03-06T18:00:09.637Z,92335.47
2023-03-06T18:01:41.585Z,92336.88
2023-03-06T18:03:13.509Z,92334.19
2023-03-06T18:04:45.298Z,92337.53
2023-03-06T18:06:17.220Z,92344.78
2023-03-06T18:07:49.242Z,92339.41
2023-03-06T18:09:20.841Z,92340.84
2023-03-06T18:10:52.584Z,92332.47
2023-03-06T18:12:24.337Z,92338.16
2023-03-06T18:13:56.093Z,92336.69
2023-03-06T18:15:28.004Z,92334.97
2023-03-06T18:17:00.177Z,92342.53
2023-03-06T18:18:31.952Z,92337.97
2023-03-06T18:20:04.013Z,92347.59
2023-03-06T18:21:35.695Z,92348.88
2023-03-06T18:23:07.437Z,92348.88
2023-03-06T18:24:39.117Z,92346.19
2023-03-06T18:26:13.904Z,92349.97
2023-03-06T18:27:45.539Z,92355.78
2023-03-06T18:29:17.147Z,92354.06